Time;durP1;ratioP1;P1;durP2;ratioP2;P2;SDS_P1;SDS_P2;PMS_P1;PMS_P2;Temp;Humidity;BMP_temperature;BMP_pressure;BME280_temperature;BME280_humidity;BME280_pressure;Samples;Min_cycle;Max_cycle;Signal;HPM_P1;HPM_P2
2023/06/09 00:01:12;;;;;;;4.27;2.87;;;;;;;18.03;57.82;101361.91;5094296;28;20040;-90
2023/06/09 00:03:39;;;;;;;6.53;3.10;;;;;;;17.99;58.45;101374.28;5093917;28;20410;-90
2023/06/09 00:06:05;;;;;;;5.68;2.88;;;;;;;18.01;57.80;101374.22;5093606;28;20085;-90
2023/06/09 00:08:31;;;;;;;7.07;3.30;;;;;;;17.94;58.22;101372.72;5093892;28;20028;-90
2023/06/09 00:10:56;;;;;;;7.35;3.00;;;;;;;17.87;58.28;101364.22;5094449;28;20020;-90
2023/06/09 00:13:22;;;;;;;10.07;3.40;;;;;;;17.84;58.09;101373.06;5094754;28;20028;-89
2023/06/09 00:15:47;;;;;;;5.83;2.93;;;;;;;17.82;58.59;101374.91;5094201;28;20024;-91
2023/06/09 00:18:15;;;;;;;9.73;3.70;;;;;;;17.67;58.84;101362.31;5093927;28;20036;-91
2023/06/09 00:20:42;;;;;;;6.72;3.30;;;;;;;17.69;58.79;101374.47;5093638;28;20353;-89
2023/06/09 00:23:08;;;;;;;9.32;3.58;;;;;;;17.64;58.88;101365.06;5094496;28;20057;-90
2023/06/09 00:25:34;;;;;;;6.90;3.17;;;;;;;17.66;58.81;101368.50;5094110;28;20020;-89
2023/06/09 00:27:59;;;;;;;4.32;2.83;;;;;;;17.66;58.18;101361.50;5093828;28;20035;-90
2023/06/09 00:30:25;;;;;;;5.60;3.23;;;;;;;17.62;58.94;101361.66;5093993;28;20020;-90
2023/06/09 00:32:50;;;;;;;6.80;3.40;;;;;;;17.51;59.07;101360.25;5093122;28;20419;-90
2023/06/09 00:35:16;;;;;;;8.47;3.33;;;;;;;17.48;58.63;101352.50;5094060;28;20372;-91
2023/06/09 00:37:41;;;;;;;7.57;3.53;;;;;;;17.42;59.36;101358.84;5093540;28;20103;-91
2023/06/09 00:40:07;;;;;;;5.23;3.33;;;;;;;17.41;59.30;101359.75;5094293;28;20317;-91
2023/06/09 00:42:33;;;;;;;7.05;3.00;;;;;;;17.37;58.79;101362.53;5093348;28;20496;-89
2023/06/09 00:44:59;;;;;;;7.22;3.30;;;;;;;17.37;59.30;101368.63;5093901;28;20027;-89
2023/06/09 00:47:26;;;;;;;5.97;3.00;;;;;;;17.33;59.45;101363.53;5093571;28;20020;-90
2023/06/09 00:49:51;;;;;;;9.95;3.80;;;;;;;17.23;59.43;101365.63;5093627;28;20040;-91
2023/06/09 00:52:17;;;;;;;6.57;3.00;;;;;;;17.18;59.80;101359.69;5093371;28;20024;-90
2023/06/09 00:54:43;;;;;;;7.45;3.00;;;;;;;17.18;59.71;101357.06;5093372;28;20051;-90
2023/06/09 00:57:10;;;;;;;11.33;4.27;;;;;;;17.01;60.04;101360.28;5093423;28;20044;-90
2023/06/09 00:59:36;;;;;;;8.00;3.70;;;;;;;17.00;60.17;101363.81;5093356;28;20115;-91
2023/06/09 01:02:04;;;;;;;10.57;4.00;;;;;;;16.93;60.36;101365.75;5093479;28;20132;-92
2023/06/09 01:04:35;;;;;;;10.60;4.00;;;;;;;16.83;60.38;101355.56;5093835;28;20028;-90
2023/06/09 01:07:09;;;;;;;8.65;3.70;;;;;;;16.89;60.05;101358.91;5093280;28;20471;-90
2023/06/09 01:10:02;;;;;;;7.07;3.40;;;;;;;16.87;60.51;101358.09;5093716;28;20026;-91
2023/06/09 01:12:52;;;;;;;8.50;3.33;;;;;;;16.81;60.48;101360.00;5095969;28;20028;-91
2023/06/09 01:15:25;;;;;;;9.23;3.80;;;;;;;16.78;60.72;101362.72;5083345;28;20067;-90
2023/06/09 01:17:52;;;;;;;9.48;4.10;;;;;;;16.71;60.77;101363.00;5077500;28;20131;-89
2023/06/09 01:20:35;;;;;;;6.80;3.50;;;;;;;16.73;60.85;101355.91;5077457;28;20107;-89
2023/06/09 01:23:25;;;;;;;6.95;3.35;;;;;;;16.68;61.34;101356.06;5077039;28;20024;-90
2023/06/09 01:25:52;;;;;;;9.57;3.70;;;;;;;16.62;61.07;101348.41;5077440;28;20032;-90
2023/06/09 01:28:23;;;;;;;9.27;3.60;;;;;;;16.58;60.79;101354.66;5080940;28;20022;-91
2023/06/09 01:30:51;;;;;;;8.68;3.83;;;;;;;16.57;61.27;101355.56;5097052;28;20367;-89
2023/06/09 01:33:21;;;;;;;10.25;3.58;;;;;;;16.45;61.99;101346.34;5097482;28;20016;-91
2023/06/09 01:35:47;;;;;;;9.30;4.38;;;;;;;16.36;62.03;101345.75;5097434;28;20486;-90
2023/06/09 01:38:14;;;;;;;7.00;3.53;;;;;;;16.38;62.33;101350.06;5097418;28;20091;-92
2023/06/09 01:40:39;;;;;;;8.18;3.75;;;;;;;16.36;62.05;101337.00;5096477;28;20024;-90
2023/06/09 01:43:06;;;;;;;8.23;3.60;;;;;;;16.30;62.36;101327.56;5096739;28;20387;-91
2023/06/09 01:45:32;;;;;;;6.72;3.33;;;;;;;16.35;61.88;101337.91;5096550;28;20107;-89
2023/06/09 01:47:57;;;;;;;10.33;4.00;;;;;;;16.31;62.22;101344.16;5097169;28;20024;-89
2023/06/09 01:50:31;;;;;;;10.50;4.00;;;;;;;16.27;62.59;101346.00;5095243;28;20051;-89
2023/06/09 01:53:09;;;;;;;7.32;3.60;;;;;;;16.27;62.23;101343.38;5097066;28;20077;-92
2023/06/09 01:55:54;;;;;;;7.20;3.50;;;;;;;16.27;61.93;101339.91;5096144;28;20472;-89
2023/06/09 01:58:27;;;;;;;4.90;2.83;;;;;;;16.28;61.61;101339.88;5096344;28;20016;-89
2023/06/09 02:00:57;;;;;;;3.95;2.50;;;;;;;16.32;62.23;101348.50;5096333;28;20475;-89
2023/06/09 02:03:23;;;;;;;3.15;2.30;;;;;;;16.32;61.51;101338.03;5096436;28;20102;-89
2023/06/09 02:05:51;;;;;;;2.65;2.13;;;;;;;16.32;61.58;101344.09;5095954;28;20400;-89
2023/06/09 02:08:17;;;;;;;2.95;2.15;;;;;;;16.28;61.80;101337.25;5096340;28;20050;-89
2023/06/09 02:10:43;;;;;;;2.92;1.95;;;;;;;16.28;61.50;101332.00;5095998;28;20024;-90
2023/06/09 02:13:16;;;;;;;2.58;2.08;;;;;;;16.31;61.61;101328.44;5083631;28;20031;-90
2023/06/09 02:15:44;;;;;;;1.92;1.80;;;;;;;16.29;61.29;101325.03;5076107;28;20043;-90
2023/06/09 02:18:11;;;;;;;1.90;1.65;;;;;;;16.32;61.84;101330.16;5075946;28;20048;-90
2023/06/09 02:20:42;;;;;;;2.03;1.70;;;;;;;16.28;61.50;101323.31;5075201;28;20103;-89
2023/06/09 02:23:09;;;;;;;1.98;1.80;;;;;;;16.26;61.40;101318.13;5075219;28;20025;-90
2023/06/09 02:25:35;;;;;;;2.63;1.95;;;;;;;16.21;61.81;101320.03;5075729;28;20039;-90
2023/06/09 02:28:03;;;;;;;2.87;1.70;;;;;;;16.18;61.59;101318.38;5075559;28;20032;-89
2023/06/09 02:30:28;;;;;;;1.73;1.58;;;;;;;16.17;61.42;101321.00;5076190;28;20029;-90
2023/06/09 02:32:55;;;;;;;2.17;1.73;;;;;;;16.15;61.72;101318.44;5075774;28;20020;-89
2023/06/09 02:35:20;;;;;;;;;;;;;;;16.12;61.94;101317.69;5075987;28;20025;-90
2023/06/09 02:37:45;;;;;;;1.90;1.63;;;;;;;16.09;61.48;101318.66;5069223;28;19943;-89
2023/06/09 02:40:11;;;;;;;1.80;1.47;;;;;;;16.03;61.60;101314.47;5096204;28;20017;-90
2023/06/09 02:42:36;;;;;;;1.63;1.40;;;;;;;16.01;64.01;101323.25;5095672;28;20460;-90
2023/06/09 02:45:02;;;;;;;8.73;3.53;;;;;;;15.86;63.46;101321.94;5095723;28;20102;-90
2023/06/09 02:47:27;;;;;;;7.75;3.05;;;;;;;15.82;62.82;101312.47;5095788;28;20059;-89
2023/06/09 02:49:52;;;;;;;4.87;2.90;;;;;;;15.78;63.35;101311.66;5095714;28;20423;-89
2023/06/09 02:52:18;;;;;;;5.40;2.70;;;;;;;15.75;62.98;101317.03;5095686;28;20020;-89
2023/06/09 02:54:43;;;;;;;3.23;2.37;;;;;;;15.73;63.01;101317.03;5095615;28;20526;-90
2023/06/09 02:57:09;;;;;;;3.87;2.30;;;;;;;15.70;63.44;101308.44;5095321;28;20024;-89
2023/06/09 02:59:34;;;;;;;3.70;2.27;;;;;;;15.67;62.67;101312.00;5095126;28;20120;-89
2023/06/09 03:02:00;;;;;;;2.93;2.00;;;;;;;15.67;62.84;101314.63;5095032;28;20113;-89
2023/06/09 03:04:25;;;;;;;2.37;2.00;;;;;;;15.66;64.78;101312.03;5095300;28;20540;-88
2023/06/09 03:06:53;;;;;;;3.37;2.00;;;;;;;15.60;63.12;101313.94;5095210;28;20109;-89
2023/06/09 03:09:18;;;;;;;2.88;2.00;;;;;;;15.56;63.27;101314.06;5095252;28;20020;-90
2023/06/09 03:11:44;;;;;;;2.93;2.00;;;;;;;15.53;63.36;101322.88;5095012;28;20047;-90
2023/06/09 03:14:09;;;;;;;2.30;2.00;;;;;;;15.52;63.19;101326.38;5095564;28;20081;-90
2023/06/09 03:16:34;;;;;;;10.63;3.87;;;;;;;15.39;66.60;101327.63;5094895;28;20024;-90
2023/06/09 03:19:00;;;;;;;6.13;3.20;;;;;;;15.37;64.69;101321.56;5085349;28;20028;-90
2023/06/09 03:21:26;;;;;;;5.88;3.08;;;;;;;15.33;64.91;101318.19;5075452;28;20154;-90
2023/06/09 03:23:51;;;;;;;3.67;2.30;;;;;;;15.33;63.89;101322.53;5074791;28;20158;-90
2023/06/09 03:26:20;;;;;;;2.60;2.23;;;;;;;15.34;64.28;101321.66;5075295;28;20048;-89
2023/06/09 03:28:46;;;;;;;3.33;2.40;;;;;;;15.33;64.43;101319.94;5074705;28;20028;-89
2023/06/09 03:31:14;;;;;;;2.77;2.10;;;;;;;15.33;64.01;101322.53;5074923;28;20031;-90
2023/06/09 03:33:39;;;;;;;2.30;2.10;;;;;;;15.35;66.08;101331.22;5073972;28;20052;-89
2023/06/09 03:36:04;;;;;;;6.87;3.00;;;;;;;15.21;65.95;101316.75;5073573;28;20043;-90
2023/06/09 03:38:30;;;;;;;3.83;2.57;;;;;;;15.19;65.43;101320.31;5081588;28;20032;-88
2023/06/09 03:40:55;;;;;;;3.47;2.40;;;;;;;15.14;65.51;101313.44;5094375;28;20036;-90
2023/06/09 03:43:20;;;;;;;3.87;2.30;;;;;;;15.15;65.67;101330.00;5094824;28;20058;-90
2023/06/09 03:45:46;;;;;;;3.30;2.07;;;;;;;15.13;65.00;101334.41;5095124;28;20446;-90
2023/06/09 03:48:11;;;;;;;4.97;2.40;;;;;;;15.11;66.55;101336.19;5095095;28;20028;-90
2023/06/09 03:50:36;;;;;;;8.43;3.60;;;;;;;15.00;67.53;101339.13;5094587;28;20016;-89
2023/06/09 03:53:01;;;;;;;7.40;3.57;;;;;;;14.96;68.81;101354.03;5094582;28;20019;-90
2023/06/09 03:55:31;;;;;;;8.47;3.50;;;;;;;14.94;66.76;101350.59;5094930;28;20020;-89
2023/06/09 03:57:56;;;;;;;6.78;3.15;;;;;;;14.93;68.96;101345.38;5094723;28;20648;-91
2023/06/09 04:00:21;;;;;;;10.87;4.20;;;;;;;14.87;68.80;101341.16;5094176;28;20042;-89
2023/06/09 04:02:47;;;;;;;12.43;4.60;;;;;;;14.78;69.18;101338.78;5093974;28;20044;-89
2023/06/09 04:05:12;;;;;;;10.77;4.07;;;;;;;14.78;69.93;101346.63;5093800;28;20035;-91
2023/06/09 04:07:37;;;;;;;8.60;4.10;;;;;;;14.72;70.05;101339.78;5094212;28;20053;-91
2023/06/09 04:10:03;;;;;;;12.63;5.03;;;;;;;14.66;70.88;101353.00;5075073;28;20072;-89
2023/06/09 04:12:30;;;;;;;11.37;4.83;;;;;;;14.64;70.48;101345.16;5073516;28;20024;-89
2023/06/09 04:14:55;;;;;;;11.05;4.75;;;;;;;14.56;70.77;101348.88;5073795;28;20035;-91
2023/06/09 04:17:22;;;;;;;12.50;4.77;;;;;;;14.48;71.85;101346.44;5073830;28;20021;-90
2023/06/09 04:19:47;;;;;;;13.48;5.07;;;;;;;14.47;72.10;101347.34;5073869;28;20024;-90
2023/06/09 04:22:13;;;;;;;13.03;4.93;;;;;;;14.47;71.39;101350.81;5055922;28;20033;-90
2023/06/09 04:24:38;;;;;;;11.20;4.87;;;;;;;14.43;72.08;101346.56;5073376;28;20048;-90
2023/06/09 04:27:04;;;;;;;14.17;5.07;;;;;;;14.50;71.94;101350.72;5074113;28;20026;-90
2023/06/09 04:29:33;;;;;;;12.23;4.70;;;;;;;14.53;71.18;101357.63;5073343;28;20028;-89
2023/06/09 04:31:59;;;;;;;11.93;4.63;;;;;;;14.53;72.07;101362.84;5091608;28;20128;-88
2023/06/09 04:34:37;;;;;;;12.30;5.07;;;;;;;14.48;72.25;101359.50;5094191;28;20099;-90
2023/06/09 04:37:04;;;;;;;15.40;5.15;;;;;;;14.50;72.93;101357.72;5073132;28;20068;-89
2023/06/09 04:39:30;;;;;;;12.40;5.32;;;;;;;14.49;72.85;101354.25;5073758;28;20028;-89
2023/06/09 04:42:04;;;;;;;15.63;5.93;;;;;;;14.52;72.91;101362.00;5073173;28;20427;-89
2023/06/09 04:44:32;;;;;;;16.35;6.32;;;;;;;14.48;73.22;101354.28;5055853;28;20027;-87
2023/06/09 04:46:58;;;;;;;14.10;5.90;;;;;;;14.55;73.43;101358.47;5072894;28;20025;-89
2023/06/09 04:49:25;;;;;;;11.35;4.80;;;;;;;14.65;72.98;101365.19;5074026;28;20020;-89
2023/06/09 04:51:51;;;;;;;14.48;5.55;;;;;;;14.69;72.46;101362.53;5055456;28;20101;-89
2023/06/09 04:54:17;;;;;;;11.10;4.63;;;;;;;14.76;72.58;101369.31;5072654;28;20123;-89
2023/06/09 04:56:43;;;;;;;6.88;3.90;;;;;;;14.83;71.85;101358.69;5055057;28;20111;-89
2023/06/09 04:59:12;;;;;;;15.23;5.55;;;;;;;14.90;72.28;101358.53;5073966;28;20017;-88
2023/06/09 05:01:41;;;;;;;15.15;5.60;;;;;;;14.93;73.33;101359.31;5072949;28;20044;-90
2023/06/09 05:04:06;;;;;;;17.55;6.15;;;;;;;14.90;73.13;101361.16;5073458;28;20491;-90
2023/06/09 05:06:32;;;;;;;14.97;6.20;;;;;;;14.91;73.05;101361.09;5072810;28;20028;-89
2023/06/09 05:08:57;;;;;;;16.77;6.63;;;;;;;14.92;73.13;101360.22;5073046;28;20107;-88
2023/06/09 05:11:22;;;;;;;12.03;5.10;;;;;;;15.02;72.83;101359.97;5073001;28;20116;-89
2023/06/09 05:13:48;;;;;;;16.23;6.33;;;;;;;15.02;74.03;101367.81;5073252;28;20036;-89
2023/06/09 05:16:15;;;;;;;14.10;6.03;;;;;;;15.04;73.12;101369.47;5073323;28;20032;-90
2023/06/09 05:18:41;;;;;;;12.48;5.65;;;;;;;15.10;73.42;101363.25;5073363;28;20138;-91
2023/06/09 05:21:06;;;;;;;17.60;6.30;;;;;;;15.13;73.54;101363.16;5073411;28;20108;-91
2023/06/09 05:23:33;;;;;;;15.17;6.27;;;;;;;15.17;73.64;101361.31;5073278;28;20457;-90
2023/06/09 05:25:59;;;;;;;14.68;5.53;;;;;;;15.28;73.48;101369.75;5073152;28;20025;-91
2023/06/09 05:28:25;;;;;;;14.48;6.10;;;;;;;15.36;73.00;101367.81;5073669;28;20020;-90
2023/06/09 05:30:50;;;;;;;15.57;6.07;;;;;;;15.42;73.00;101366.78;5073220;28;20484;-89
2023/06/09 05:33:17;;;;;;;11.23;5.00;;;;;;;15.51;72.93;101366.53;5073104;28;20017;-91
2023/06/09 05:35:42;;;;;;;16.15;6.28;;;;;;;15.56;72.92;101363.78;5073350;28;20434;-89
2023/06/09 05:38:07;;;;;;;13.13;5.20;;;;;;;15.66;73.10;101370.47;5072833;28;20017;-92
2023/06/09 05:40:33;;;;;;;15.83;6.30;;;;;;;15.71;72.35;101372.94;5072480;28;20107;-90
2023/06/09 05:42:58;;;;;;;13.30;5.43;;;;;;;15.76;72.53;101378.94;5073691;28;20078;-90
2023/06/09 05:45:29;;;;;;;18.03;6.53;;;;;;;15.81;72.52;101374.41;5083223;28;20463;-90
2023/06/09 05:47:55;;;;;;;15.45;5.90;;;;;;;15.84;72.83;101371.72;5073042;28;20392;-90
2023/06/09 05:50:20;;;;;;;15.10;6.23;;;;;;;15.92;72.16;101368.91;5073177;28;20024;-87
2023/06/09 05:52:45;;;;;;;17.60;7.17;;;;;;;15.96;72.30;101374.91;5072584;28;20021;-88
2023/06/09 05:55:16;;;;;;;17.87;6.83;;;;;;;15.94;72.11;101368.84;5072381;28;20031;-92
2023/06/09 05:57:43;;;;;;;14.07;6.55;;;;;;;16.02;72.30;101375.56;5074452;28;20043;-90
2023/06/09 06:00:09;;;;;;;15.52;6.80;;;;;;;16.04;72.52;101381.59;5078357;28;20027;-89
2023/06/09 06:02:34;;;;;;;16.48;7.10;;;;;;;16.20;72.20;101374.16;5075503;28;20052;-90
2023/06/09 06:05:01;;;;;;;16.67;7.03;;;;;;;16.71;71.15;101370.84;5086063;28;20024;-90
2023/06/09 06:07:26;;;;;;;14.75;6.40;;;;;;;17.31;70.63;101367.97;5096804;28;20095;-91
2023/06/09 06:09:52;;;;;;;10.87;4.93;;;;;;;18.23;69.49;101369.00;5096226;28;20066;-91
2023/06/09 06:12:17;;;;;;;12.07;5.07;;;;;;;19.76;65.49;101365.19;5096389;28;20036;-91
2023/06/09 06:14:42;;;;;;;8.30;4.60;;;;;;;21.10;61.86;101370.28;5096656;28;20032;-91
2023/06/09 06:17:07;;;;;;;11.70;5.60;;;;;;;21.51;58.03;101353.19;5096753;28;20028;-91
2023/06/09 06:19:33;;;;;;;14.37;6.20;;;;;;;21.36;55.33;101370.72;5096190;28;20047;-92
2023/06/09 06:21:58;;;;;;;16.43;7.23;;;;;;;20.36;56.90;101363.38;5096639;28;20396;-91
2023/06/09 06:24:23;;;;;;;17.93;7.63;;;;;;;19.62;59.53;101372.91;5096472;28;20020;-90
2023/06/09 06:26:49;;;;;;;14.63;6.83;;;;;;;19.50;60.54;101371.66;5095781;28;20498;-93
2023/06/09 06:29:14;;;;;;;14.30;6.73;;;;;;;19.48;61.30;101364.75;5095616;28;20107;-88
2023/06/09 06:31:52;;;;;;;17.20;7.00;;;;;;;19.69;61.27;101358.50;5088244;28;20073;-87
2023/06/09 06:34:17;;;;;;;8.85;4.53;;;;;;;20.07;61.42;101370.88;5083592;28;20028;-91
2023/06/09 06:36:42;;;;;;;9.23;4.50;;;;;;;20.47;61.39;101373.38;5097757;28;20479;-95
2023/06/09 06:39:08;;;;;;;12.73;5.43;;;;;;;20.65;59.74;101364.59;5098337;28;20077;-94
2023/06/09 06:41:33;;;;;;;10.17;4.87;;;;;;;20.92;60.31;101358.03;5096484;28;20016;-91
2023/06/09 06:43:58;;;;;;;8.80;4.57;;;;;;;21.18;57.33;101372.53;5096484;28;20027;-90
2023/06/09 06:46:24;;;;;;;16.97;8.00;;;;;;;20.98;57.60;101381.44;5095693;28;20426;-90
2023/06/09 06:48:50;;;;;;;16.57;7.17;;;;;;;20.70;58.56;101367.00;5096322;28;20044;-91
2023/06/09 06:51:15;;;;;;;12.35;5.85;;;;;;;20.79;58.84;101377.09;5094367;28;20479;-91
2023/06/09 06:53:40;;;;;;;16.17;7.50;;;;;;;20.68;58.83;101374.13;5096586;28;20028;-96
2023/06/09 06:56:06;;;;;;;11.13;5.90;;;;;;;20.71;59.78;101371.34;5092875;28;20020;-90
2023/06/09 06:58:31;;;;;;;13.27;6.00;;;;;;;20.83;58.26;101368.09;5075608;28;20047;-90
2023/06/09 07:00:57;;;;;;;16.63;8.07;;;;;;;20.77;58.36;101372.84;5076012;28;20021;-94
2023/06/09 07:03:25;;;;;;;13.33;6.57;;;;;;;20.87;59.96;101367.94;5075702;28;20174;-89
2023/06/09 07:05:51;;;;;;;11.20;5.47;;;;;;;21.09;59.41;101373.00;5057230;28;20081;-88
2023/06/09 07:08:17;;;;;;;17.38;7.95;;;;;;;21.21;57.56;101366.22;5075721;28;20032;-93
2023/06/09 07:10:42;;;;;;;12.53;6.53;;;;;;;21.13;58.02;101378.03;5078328;28;20024;-95
2023/06/09 07:13:07;;;;;;;16.83;8.00;;;;;;;20.92;57.90;101372.06;5079477;28;20029;-92
2023/06/09 07:15:33;;;;;;;16.83;7.37;;;;;;;20.79;59.78;101379.75;5074582;28;20115;-92
2023/06/09 07:17:58;;;;;;;15.50;7.60;;;;;;;20.79;59.21;101379.75;5075711;28;20377;-93
2023/06/09 07:20:23;;;;;;;17.00;7.90;;;;;;;20.73;58.95;101382.63;5075276;28;20031;-94
2023/06/09 07:22:51;;;;;;;17.00;7.83;;;;;;;20.66;59.70;101376.81;5074935;28;20028;-94
2023/06/09 07:25:17;;;;;;;11.18;5.78;;;;;;;20.88;60.28;101375.81;5075300;28;20024;-93
2023/06/09 07:27:45;;;;;;;17.40;7.90;;;;;;;21.09;59.04;101375.63;5075164;28;20503;-93
2023/06/09 07:30:11;;;;;;;15.20;7.18;;;;;;;21.14;59.29;101376.22;5074754;28;20290;-93
2023/06/09 07:32:39;;;;;;;11.03;5.87;;;;;;;21.36;59.37;101376.00;5074467;28;20052;-92
2023/06/09 07:35:05;;;;;;;13.15;6.70;;;;;;;21.62;58.86;101378.22;5074993;28;20034;-94
2023/06/09 07:37:31;;;;;;;14.07;7.00;;;;;;;21.85;57.70;101382.22;5074451;28;20024;-94
2023/06/09 07:39:56;;;;;;;11.77;5.80;;;;;;;22.04;58.33;101382.09;5075961;28;20552;-93
2023/06/09 07:42:22;;;;;;;14.77;7.53;;;;;;;22.04;56.89;101380.31;5075023;28;20036;-93
2023/06/09 07:44:47;;;;;;;17.70;8.73;;;;;;;21.83;56.63;101377.03;5074734;28;20023;-94
2023/06/09 07:47:12;;;;;;;15.17;7.90;;;;;;;21.98;57.15;101378.00;5074692;28;20013;-96
2023/06/09 07:49:38;;;;;;;15.00;7.57;;;;;;;22.05;57.43;101371.44;5074385;28;20021;-95
2023/06/09 07:52:04;;;;;;;11.33;5.43;;;;;;;22.23;56.90;101360.75;5074414;28;20025;-94
2023/06/09 07:54:29;;;;;;;;;;;;;;;22.36;55.25;101369.72;5074911;28;20027;-93
2023/06/09 07:56:55;;;;;;;16.83;8.23;;;;;;;22.26;55.54;101370.31;5074264;28;19912;-94
2023/06/09 07:59:21;;;;;;;15.47;7.30;;;;;;;22.33;56.50;101372.53;5074201;28;20043;-94
2023/06/09 08:01:46;;;;;;;10.55;5.70;;;;;;;22.45;56.64;101363.09;5073874;28;20072;-94
2023/06/09 08:04:13;;;;;;;18.70;9.18;;;;;;;22.60;55.35;101369.28;5074427;28;20064;-94
2023/06/09 08:06:38;;;;;;;13.02;7.03;;;;;;;22.65;56.14;101369.00;5074326;28;20063;-94
2023/06/09 08:09:04;;;;;;;9.52;5.35;;;;;;;22.87;56.13;101357.16;5074114;28;20044;-94
2023/06/09 08:11:30;;;;;;;9.40;5.40;;;;;;;23.12;55.66;101364.47;5092270;28;20027;-94
2023/06/09 08:13:55;;;;;;;8.50;5.00;;;;;;;23.40;55.19;101360.19;5094976;28;20101;-94
2023/06/09 08:16:20;;;;;;;11.13;5.80;;;;;;;23.61;53.88;101363.28;5094144;28;20024;-95
2023/06/09 08:18:46;;;;;;;14.83;7.67;;;;;;;23.64;52.33;101356.97;5093988;28;20050;-95
2023/06/09 08:21:14;;;;;;;11.77;6.00;;;;;;;23.61;52.78;101360.66;5094585;28;20020;-94
2023/06/09 08:23:43;;;;;;;16.40;8.00;;;;;;;23.62;52.01;101358.88;5094416;28;20023;-93
2023/06/09 08:26:09;;;;;;;11.35;6.63;;;;;;;23.66;52.98;101360.34;5094317;28;20051;-92
2023/06/09 08:28:35;;;;;;;18.52;8.43;;;;;;;23.53;51.89;101355.81;5093779;28;20083;-92
2023/06/09 08:31:00;;;;;;;14.93;8.10;;;;;;;23.53;52.44;101355.81;5094171;28;20048;-94
2023/06/09 08:33:28;;;;;;;15.83;8.03;;;;;;;23.63;51.86;101347.31;5093603;28;20024;-92
2023/06/09 08:35:53;;;;;;;11.80;6.68;;;;;;;23.78;52.70;101356.09;5093910;28;20035;-93
2023/06/09 08:38:18;;;;;;;15.87;8.10;;;;;;;23.85;51.06;101352.09;5093865;28;20028;-94
2023/06/09 08:40:43;;;;;;;8.70;5.17;;;;;;;24.00;52.11;101356.47;5093443;28;20460;-94
2023/06/09 08:43:09;;;;;;;10.40;5.23;;;;;;;24.23;52.03;101362.09;5093731;28;20032;-94
2023/06/09 08:45:35;;;;;;;12.82;6.90;;;;;;;24.37;50.78;101359.34;5093899;28;20121;-93
2023/06/09 08:48:02;;;;;;;17.20;8.00;;;;;;;24.12;51.02;101349.50;5074074;28;20483;-94
2023/06/09 08:50:28;;;;;;;16.42;8.52;;;;;;;24.30;49.62;101365.19;5073474;28;20033;-94
2023/06/09 08:52:55;;;;;;;15.25;7.68;;;;;;;24.41;49.74;101354.72;5073614;28;20034;-94
2023/06/09 08:55:21;;;;;;;17.20;7.80;;;;;;;24.43;49.87;101363.41;5074847;28;20031;-93
2023/06/09 08:57:48;;;;;;;15.05;7.63;;;;;;;24.45;49.47;101358.84;5072776;28;20377;-91
2023/06/09 09:00:15;;;;;;;15.68;8.13;;;;;;;24.29;49.94;101348.41;5073097;28;20028;-93
2023/06/09 09:02:41;;;;;;;12.95;7.15;;;;;;;24.40;49.34;101362.78;5072822;28;20135;-91
2023/06/09 09:05:07;;;;;;;;;;;;;;;24.45;49.46;101360.69;5073971;28;20043;-91
2023/06/09 09:07:32;;;;;;;12.57;6.10;;;;;;;24.64;49.96;101353.19;5072826;28;20432;-94
2023/06/09 09:09:58;;;;;;;7.70;4.93;;;;;;;24.93;48.97;101339.78;5073491;28;20048;-94
2023/06/09 09:12:23;;;;;;;;;;;;;;;25.28;47.98;101343.59;5074165;28;20028;-93
2023/06/09 09:14:49;;;;;;;10.83;5.80;;;;;;;25.49;48.45;101346.59;5073727;28;20360;-94
2023/06/09 09:17:15;;;;;;;13.45;6.60;;;;;;;25.56;45.64;101341.66;5073576;28;20579;-94
2023/06/09 09:19:45;;;;;;;10.27;6.45;;;;;;;25.56;46.66;101342.53;5073160;28;20032;-93
2023/06/09 09:22:11;;;;;;;11.27;6.22;;;;;;;25.71;45.67;101350.38;5073526;28;20113;-92
2023/06/09 09:24:40;;;;;;;;;;;;;;;25.67;44.30;101343.56;5073999;28;20106;-93
2023/06/09 09:27:21;;;;;;;8.00;5.38;;;;;;;25.65;45.35;101346.34;5083756;28;19966;-87
2023/06/09 09:29:46;;;;;;;13.18;7.25;;;;;;;25.71;45.68;101332.63;5092257;28;20380;-89
2023/06/09 09:32:12;;;;;;;10.57;5.63;;;;;;;25.86;45.72;101335.97;5093467;28;20024;-95
2023/06/09 09:34:41;;;;;;;11.63;5.72;;;;;;;26.06;46.54;101323.88;5097553;28;20099;-96
2023/06/09 09:37:19;;;;;;;10.63;5.50;;;;;;;26.24;44.84;101322.66;5081650;28;20039;-93
2023/06/09 09:39:51;;;;;;;16.25;8.40;;;;;;;25.69;45.25;101328.38;5077327;28;20074;-93
2023/06/09 09:42:17;;;;;;;11.68;6.85;;;;;;;25.73;45.54;101319.19;5077025;28;20047;-94
2023/06/09 09:44:52;;;;;;;14.63;7.25;;;;;;;25.86;45.54;101324.50;5077028;28;20129;-93
2023/06/09 09:47:19;;;;;;;12.52;6.53;;;;;;;25.99;45.01;101319.13;5076883;28;20025;-93
2023/06/09 09:49:54;;;;;;;12.18;6.72;;;;;;;26.20;44.98;101320.22;5076237;28;20024;-94
2023/06/09 09:52:24;;;;;;;11.52;6.53;;;;;;;26.43;45.09;101319.47;5078668;28;20043;-93
2023/06/09 09:54:51;;;;;;;10.00;5.70;;;;;;;26.64;45.04;101317.84;5078219;28;20039;-88
2023/06/09 09:57:18;;;;;;;12.45;6.38;;;;;;;26.63;44.64;101316.16;5075022;28;20028;-88
2023/06/09 09:59:44;;;;;;;8.48;5.38;;;;;;;26.82;44.56;101314.75;5075156;28;20085;-84
2023/06/09 10:02:15;;;;;;;17.75;8.45;;;;;;;26.79;42.83;101325.66;5075590;28;20052;-89
2023/06/09 10:04:43;;;;;;;9.90;5.50;;;;;;;26.89;44.07;101309.81;5085872;28;20460;-89
2023/06/09 10:07:10;;;;;;;11.38;6.35;;;;;;;26.93;44.34;101319.25;5095806;28;20111;-88
2023/06/09 10:09:36;;;;;;;9.30;6.03;;;;;;;27.17;42.75;101305.84;5095479;28;20085;-87
2023/06/09 10:12:01;;;;;;;;;;;;;;;27.23;41.10;101308.03;5092764;28;20029;-88
2023/06/09 10:14:29;;;;;;;;;;;;;;;26.98;41.85;101309.94;5076046;28;19919;-88
2023/06/09 10:16:58;;;;;;;9.68;5.80;;;;;;;27.12;43.84;101308.88;5075617;28;19912;-89
2023/06/09 10:19:24;;;;;;;11.68;7.20;;;;;;;27.21;41.48;101309.97;5075382;28;20083;-87
2023/06/09 10:21:49;;;;;;;;;;;;;;;27.14;42.10;101303.41;5075353;28;20578;-90
2023/06/09 10:24:17;;;;;;;8.37;5.60;;;;;;;27.33;41.41;101294.81;5075575;28;20346;-87
2023/06/09 10:26:43;;;;;;;11.32;6.22;;;;;;;27.55;40.68;101307.31;5074536;28;20031;-89
2023/06/09 10:29:09;;;;;;;;;;;;;;;27.47;39.96;101309.75;5074997;28;20063;-87
2023/06/09 10:31:41;;;;;;;13.43;6.97;;;;;;;27.18;40.33;101306.69;5074538;28;19948;-86
2023/06/09 10:34:08;;;;;;;9.43;5.45;;;;;;;27.38;42.31;101297.97;5074977;28;20036;-87
2023/06/09 10:36:40;;;;;;;11.77;6.97;;;;;;;27.42;40.22;101287.91;5081771;28;20048;-87
2023/06/09 10:39:17;;;;;;;11.52;6.93;;;;;;;27.08;40.10;101287.91;5094729;28;20119;-86
2023/06/09 10:41:50;;;;;;;9.98;5.68;;;;;;;27.33;40.54;101285.97;5094451;28;20031;-87
2023/06/09 10:44:31;;;;;;;11.13;6.40;;;;;;;27.65;39.97;101295.91;5093773;28;20028;-87
2023/06/09 10:46:56;;;;;;;10.07;6.10;;;;;;;27.52;39.48;101288.88;5094495;28;20024;-87
2023/06/09 10:49:24;;;;;;;;;;;;;;;27.68;40.74;101287.66;5094346;28;20369;-86
2023/06/09 10:51:50;;;;;;;14.50;7.20;;;;;;;27.58;38.58;101285.72;5083208;28;20867;-86
2023/06/09 10:54:19;;;;;;;;;;;;;;;27.64;40.20;101273.69;5083333;28;20036;-86
2023/06/09 10:56:52;;;;;;;11.35;6.10;;;;;;;27.71;39.57;101269.59;5080687;28;19917;-89
2023/06/09 10:59:23;;;;;;;7.70;4.88;;;;;;;28.02;40.14;101279.56;5074659;28;20392;-87
2023/06/09 11:02:03;;;;;;;8.35;5.40;;;;;;;28.39;38.97;101289.81;5073850;28;20040;-90
2023/06/09 11:04:37;;;;;;;9.93;5.78;;;;;;;28.50;38.44;101272.91;5074657;28;20097;-91
2023/06/09 11:07:10;;;;;;;6.78;4.90;;;;;;;28.75;37.74;101271.69;5074227;28;20016;-86
2023/06/09 11:09:36;;;;;;;9.45;5.30;;;;;;;28.86;35.51;101275.25;5074321;28;20028;-89
2023/06/09 11:12:23;;;;;;;8.75;5.53;;;;;;;28.82;36.09;101272.81;5083166;28;20028;-95
2023/06/09 11:14:56;;;;;;;9.18;5.50;;;;;;;28.66;35.38;101277.78;5075290;28;20099;-92
2023/06/09 11:17:36;;;;;;;8.68;5.53;;;;;;;28.74;35.92;101271.81;5074824;28;20024;-91
2023/06/09 11:20:05;;;;;;;9.13;5.05;;;;;;;28.67;35.03;101274.97;5074996;28;20124;-90
2023/06/09 11:22:31;;;;;;;10.48;5.78;;;;;;;28.29;35.88;101270.22;5074256;28;20079;-90
2023/06/09 11:24:57;;;;;;;;;;;;;;;28.33;34.85;101279.69;5074975;28;20488;-93